Time,TemperatureF,DewpointF,PressureIn,WindDirection,WindDirectionDegrees,WindSpeedMPH,WindSpeedGustMPH,Humidity,HourlyPrecipIn,Conditions,Clouds,dailyrainin,SoftwareType,DateUTC
2013-03-24 00:00:00,48.0,48.0,-100.00,SW,230,4.0,-999.0,100,0.00,,,0.29,,2013-03-24 05:00:00,
2013-03-24 00:32:00,48.0,48.0,-100.00,SW,230,4.0,-999.0,100,0.00,,,0.29,,2013-03-24 05:32:00,
2013-03-24 00:43:00,48.0,48.0,-100.00,SW,230,4.0,-999.0,100,0.00,,,0.29,,2013-03-24 05:43:00,
2013-03-24 00:52:00,48.0,48.0,-100.00,SW,230,4.0,-999.0,100,0.00,,,0.29,,2013-03-24 05:52:00,
2013-03-24 01:00:00,47.0,47.0,-100.00,NW,322,9.0,-999.0,100,0.00,,,0.29,,2013-03-24 06:00:00,
2013-03-24 01:32:00,47.0,47.0,-100.00,NW,322,9.0,-999.0,100,0.00,,,0.29,,2013-03-24 06:32:00,
2013-03-24 01:42:00,47.0,47.0,-100.00,NW,322,9.0,-999.0,100,0.00,,,0.29,,2013-03-24 06:42:00,
2013-03-24 01:52:00,47.0,47.0,-100.00,NW,322,9.0,-999.0,100,0.00,,,0.29,,2013-03-24 06:52:00,
2013-03-24 02:00:00,46.0,46.0,-100.00,WNW,296,6.0,-999.0,100,0.02,,,0.31,,2013-03-24 07:00:00,
2013-03-24 02:32:00,46.0,46.0,-100.00,WNW,296,6.0,-999.0,100,0.02,,,0.31,,2013-03-24 07:32:00,
2013-03-24 02:42:00,46.0,46.0,-100.00,WNW,296,6.0,-999.0,100,0.02,,,0.31,,2013-03-24 07:42:00,
2013-03-24 02:52:00,46.0,46.0,-100.00,WNW,296,6.0,-999.0,100,0.02,,,0.31,,2013-03-24 07:52:00,
2013-03-24 03:00:00,44.0,44.0,-100.00,NW,325,8.0,-999.0,100,0.02,,,0.33,,2013-03-24 08:00:00,
2013-03-24 03:32:00,44.0,44.0,-100.00,NW,325,8.0,-999.0,100,0.02,,,0.33,,2013-03-24 08:32:00,
2013-03-24 03:42:00,44.0,44.0,-100.00,NW,325,8.0,-999.0,100,0.02,,,0.33,,2013-03-24 08:42:00,
2013-03-24 03:52:00,44.0,44.0,-100.00,NW,325,8.0,-999.0,100,0.02,,,0.33,,2013-03-24 08:52:00,
2013-03-24 04:00:00,44.0,43.0,-100.00,NW,322,10.0,-999.0,99,0.00,,,0.33,,2013-03-24 09:00:00,
2013-03-24 04:33:00,44.0,43.0,-100.00,NW,322,10.0,-999.0,99,0.00,,,0.33,,2013-03-24 09:33:00,
2013-03-24 04:43:00,44.0,43.0,-100.00,NW,322,10.0,-999.0,99,0.00,,,0.33,,2013-03-24 09:43:00,
2013-03-24 04:52:00,44.0,43.0,-100.00,NW,322,10.0,-999.0,99,0.00,,,0.33,,2013-03-24 09:52:00,
2013-03-24 05:00:00,42.0,40.0,-100.00,NW,323,10.0,-999.0,93,0.00,,,0.33,,2013-03-24 10:00:00,
2013-03-24 05:33:00,42.0,40.0,-100.00,NW,323,10.0,-999.0,93,0.00,,,0.33,,2013-03-24 10:33:00,
2013-03-24 05:42:00,42.0,40.0,-100.00,NW,323,10.0,-999.0,93,0.00,,,0.33,,2013-03-24 10:42:00,
2013-03-24 05:52:00,42.0,40.0,-100.00,NW,323,10.0,-999.0,93,0.00,,,0.33,,2013-03-24 10:52:00,
2013-03-24 06:00:00,40.0,36.0,-100.00,NW,322,12.0,-999.0,86,0.00,,,0.33,,2013-03-24 11:00:00,
2013-03-24 06:33:00,40.0,36.0,-100.00,NW,322,12.0,-999.0,86,0.00,,,0.33,,2013-03-24 11:33:00,
2013-03-24 06:42:00,40.0,36.0,-100.00,NW,322,12.0,-999.0,86,0.00,,,0.33,,2013-03-24 11:42:00,
2013-03-24 06:52:00,40.0,36.0,-100.00,NW,322,12.0,-999.0,86,0.00,,,0.33,,2013-03-24 11:52:00,
2013-03-24 07:00:00,39.0,34.0,-100.00,NW,323,9.0,-999.0,82,0.00,,,0.33,,2013-03-24 12:00:00,
2013-03-24 07:32:00,39.0,34.0,-100.00,NW,323,9.0,-999.0,82,0.00,,,0.33,,2013-03-24 12:32:00,
2013-03-24 07:42:00,39.0,34.0,-100.00,NW,323,9.0,-999.0,82,0.00,,,0.33,,2013-03-24 12:42:00,
2013-03-24 07:52:00,39.0,34.0,-100.00,NW,323,9.0,-999.0,82,0.00,,,0.33,,2013-03-24 12:52:00,
2013-03-24 08:00:00,38.0,31.0,-100.00,NW,313,13.0,-999.0,74,0.00,,,0.33,,2013-03-24 13:00:00,
2013-03-24 08:32:00,38.0,31.0,-100.00,NW,313,13.0,-999.0,74,0.00,,,0.33,,2013-03-24 13:32:00,
2013-03-24 08:43:00,38.0,31.0,-100.00,NW,313,13.0,-999.0,74,0.00,,,0.33,,2013-03-24 13:43:00,
2013-03-24 08:52:00,38.0,31.0,-100.00,NW,313,13.0,-999.0,74,0.00,,,0.33,,2013-03-24 13:52:00,
2013-03-24 09:00:00,37.0,29.0,-100.00,NNW,333,14.0,-999.0,72,0.00,,,0.33,,2013-03-24 14:00:00,
2013-03-24 09:32:00,37.0,29.0,-100.00,NNW,333,14.0,-999.0,72,0.00,,,0.33,,2013-03-24 14:32:00,
2013-03-24 09:43:00,37.0,29.0,-100.00,NNW,333,14.0,-999.0,72,0.00,,,0.33,,2013-03-24 14:43:00,
2013-03-24 09:52:00,37.0,29.0,-100.00,NNW,333,14.0,-999.0,72,0.00,,,0.33,,2013-03-24 14:52:00,
2013-03-24 10:00:00,38.0,29.0,-100.00,NNW,332,15.0,-999.0,69,0.00,,,0.33,,2013-03-24 15:00:00,
2013-03-24 10:33:00,38.0,29.0,-100.00,NNW,332,15.0,-999.0,69,0.00,,,0.33,,2013-03-24 15:33:00,
2013-03-24 10:43:00,38.0,29.0,-100.00,NNW,332,15.0,-999.0,69,0.00,,,0.33,,2013-03-24 15:43:00,
2013-03-24 10:53:00,38.0,29.0,-100.00,NNW,332,15.0,-999.0,69,0.00,,,0.33,,2013-03-24 15:53:00,
2013-03-24 11:00:00,38.0,28.0,-100.00,NNW,341,21.0,-999.0,68,0.00,,,0.32,,2013-03-24 16:00:00,
2013-03-24 11:33:00,38.0,28.0,-100.00,NNW,341,21.0,-999.0,68,0.00,,,0.32,,2013-03-24 16:33:00,
2013-03-24 11:43:00,38.0,28.0,-100.00,NNW,341,21.0,-999.0,68,0.00,,,0.32,,2013-03-24 16:43:00,
2013-03-24 11:52:00,38.0,28.0,-100.00,NNW,341,21.0,-999.0,68,0.00,,,0.32,,2013-03-24 16:52:00,
2013-03-24 12:00:00,38.0,28.0,-100.00,NNW,341,19.0,-999.0,66,0.00,,,0.32,,2013-03-24 17:00:00,
2013-03-24 12:33:00,38.0,28.0,-100.00,NNW,341,19.0,-999.0,66,0.00,,,0.32,,2013-03-24 17:33:00,
2013-03-24 12:43:00,38.0,28.0,-100.00,NNW,341,19.0,-999.0,66,0.00,,,0.32,,2013-03-24 17:43:00,
2013-03-24 12:53:00,38.0,28.0,-100.00,NNW,341,19.0,-999.0,66,0.00,,,0.32,,2013-03-24 17:53:00,
2013-03-24 13:00:00,39.0,28.0,-100.00,NNW,334,13.0,-999.0,66,0.00,,,0.31,,2013-03-24 18:00:00,
2013-03-24 13:32:00,39.0,28.0,-100.00,NNW,334,13.0,-999.0,66,0.00,,,0.31,,2013-03-24 18:32:00,
2013-03-24 13:43:00,39.0,28.0,-100.00,NNW,334,13.0,-999.0,66,0.00,,,0.31,,2013-03-24 18:43:00,
2013-03-24 13:52:00,39.0,28.0,-100.00,NNW,334,13.0,-999.0,66,0.00,,,0.31,,2013-03-24 18:52:00,
2013-03-24 14:00:00,40.0,26.0,-100.00,North,349,17.0,-999.0,58,0.00,,,0.25,,2013-03-24 19:00:00,
2013-03-24 14:43:00,40.0,26.0,-100.00,North,349,17.0,-999.0,58,0.00,,,0.25,,2013-03-24 19:43:00,
2013-03-24 14:53:00,40.0,26.0,-100.00,North,349,17.0,-999.0,58,0.00,,,0.25,,2013-03-24 19:53:00,
2013-03-24 15:00:00,42.0,26.0,-100.00,NNW,341,17.0,-999.0,53,0.00,,,0.23,,2013-03-24 20:00:00,
2013-03-24 15:32:00,42.0,26.0,-100.00,NNW,341,17.0,-999.0,53,0.00,,,0.23,,2013-03-24 20:32:00,
2013-03-24 15:43:00,42.0,26.0,-100.00,NNW,341,17.0,-999.0,53,0.00,,,0.23,,2013-03-24 20:43:00,
2013-03-24 15:53:00,42.0,26.0,-100.00,NNW,341,17.0,-999.0,53,0.00,,,0.23,,2013-03-24 20:53:00,
2013-03-24 16:00:00,44.0,26.0,-100.00,NNW,343,16.0,-999.0,50,0.00,,,0.17,,2013-03-24 21:00:00,
2013-03-24 16:33:00,44.0,26.0,-100.00,NNW,343,16.0,-999.0,50,0.00,,,0.17,,2013-03-24 21:33:00,
2013-03-24 16:43:00,44.0,26.0,-100.00,NNW,343,16.0,-999.0,50,0.00,,,0.17,,2013-03-24 21:43:00,
2013-03-24 16:53:00,44.0,26.0,-100.00,NNW,343,16.0,-999.0,50,0.00,,,0.17,,2013-03-24 21:53:00,
2013-03-24 17:00:00,45.0,27.0,-100.00,NNW,342,13.0,-999.0,49,0.00,,,0.17,,2013-03-24 22:00:00,
2013-03-24 17:33:00,45.0,27.0,-100.00,NNW,342,13.0,-999.0,49,0.00,,,0.17,,2013-03-24 22:33:00,
2013-03-24 17:43:00,45.0,27.0,-100.00,NNW,342,13.0,-999.0,49,0.00,,,0.17,,2013-03-24 22:43:00,
2013-03-24 17:52:00,45.0,27.0,-100.00,NNW,342,13.0,-999.0,49,0.00,,,0.17,,2013-03-24 22:52:00,
2013-03-24 18:00:00,45.0,27.0,-100.00,NNW,347,13.0,-999.0,48,0.00,,,0.05,,2013-03-24 23:00:00,
2013-03-24 18:32:00,45.0,27.0,-100.00,NNW,347,13.0,-999.0,48,0.00,,,0.05,,2013-03-24 23:32:00,
2013-03-24 18:42:00,45.0,27.0,-100.00,NNW,347,13.0,-999.0,48,0.00,,,0.05,,2013-03-24 23:42:00,
2013-03-24 18:53:00,45.0,27.0,-100.00,NNW,347,13.0,-999.0,48,0.00,,,0.05,,2013-03-24 23:53:00,
2013-03-24 20:00:00,43.0,24.0,-100.00,North,349,11.0,-999.0,46,0.00,,,0.05,,2013-03-25 01:00:00,
2013-03-24 20:32:00,43.0,24.0,-100.00,North,349,11.0,-999.0,46,0.00,,,0.05,,2013-03-25 01:32:00,
2013-03-24 20:42:00,43.0,24.0,-100.00,North,349,11.0,-999.0,46,0.00,,,0.05,,2013-03-25 01:42:00,
2013-03-24 20:52:00,43.0,24.0,-100.00,North,349,11.0,-999.0,46,0.00,,,0.05,,2013-03-25 01:52:00,
2013-03-24 21:00:00,41.0,25.0,-100.00,NNW,348,12.0,-999.0,52,0.00,,,0.05,,2013-03-25 02:00:00,
2013-03-24 21:43:00,41.0,25.0,-100.00,NNW,348,12.0,-999.0,52,0.00,,,0.05,,2013-03-25 02:43:00,
2013-03-24 21:52:00,41.0,25.0,-100.00,NNW,348,12.0,-999.0,52,0.00,,,0.05,,2013-03-25 02:52:00,
2013-03-24 22:00:00,40.0,25.0,-100.00,NNW,340,9.0,-999.0,54,0.00,,,0.04,,2013-03-25 03:00:00,
2013-03-24 22:33:00,40.0,25.0,-100.00,NNW,340,9.0,-999.0,54,0.00,,,0.04,,2013-03-25 03:33:00,
2013-03-24 22:43:00,40.0,25.0,-100.00,NNW,340,9.0,-999.0,54,0.00,,,0.04,,2013-03-25 03:43:00,
2013-03-24 22:53:00,40.0,25.0,-100.00,NNW,340,9.0,-999.0,54,0.00,,,0.04,,2013-03-25 03:53:00,
2013-03-24 23:00:00,38.0,23.0,-100.00,NNW,340,9.0,-999.0,54,0.00,,,0.04,,2013-03-25 04:00:00,
2013-03-24 23:33:00,38.0,23.0,-100.00,NNW,340,9.0,-999.0,54,0.00,,,0.04,,2013-03-25 04:33:00,
2013-03-24 23:43:00,38.0,23.0,-100.00,NNW,340,9.0,-999.0,54,0.00,,,0.04,,2013-03-25 04:43:00,
2013-03-24 23:52:00,38.0,23.0,-100.00,NNW,340,9.0,-999.0,54,0.00,,,0.04,,2013-03-25 04:52:00,